createdAt,value
2018-09-26T00:00:09.956Z,8.12
2018-09-26T00:01:09.876Z,8.12
2018-09-26T00:02:09.792Z,8.10
2018-09-26T00:03:09.712Z,8.08
2018-09-26T00:04:09.634Z,8.03
2018-09-26T00:05:09.547Z,8.16
2018-09-26T00:06:09.473Z,8.05
2018-09-26T00:07:09.383Z,8.01
2018-09-26T00:08:09.302Z,7.91
2018-09-26T00:09:09.219Z,7.94
2018-09-26T00:10:09.141Z,7.98
2018-09-26T00:11:09.054Z,7.97
2018-09-26T00:12:08.973Z,7.91
2018-09-26T00:13:08.894Z,8.08
2018-09-26T00:14:08.809Z,8.00
2018-09-26T00:15:08.727Z,7.95
2018-09-26T00:16:08.651Z,8.01
2018-09-26T00:17:08.565Z,8.05
2018-09-26T00:18:08.482Z,7.98
2018-09-26T00:19:08.398Z,8.03
2018-09-26T00:20:08.316Z,8.01
2018-09-26T00:21:08.232Z,7.97
2018-09-26T00:22:08.152Z,7.80
2018-09-26T00:23:08.072Z,7.79
2018-09-26T00:24:07.995Z,7.69
2018-09-26T00:25:07.906Z,7.75
2018-09-26T00:26:07.831Z,7.75
2018-09-26T00:27:07.746Z,7.76
2018-09-26T00:28:07.665Z,7.61
2018-09-26T00:29:07.577Z,7.63
2018-09-26T00:30:07.494Z,7.63
2018-09-26T00:31:07.414Z,7.57
2018-09-26T00:32:07.335Z,7.75
2018-09-26T00:33:07.249Z,7.76
2018-09-26T00:34:07.171Z,7.73
2018-09-26T00:35:07.091Z,7.70
2018-09-26T00:36:07.098Z,7.72
2018-09-26T00:37:06.921Z,7.75
2018-09-26T00:38:06.838Z,7.80
2018-09-26T00:39:06.762Z,7.75
2018-09-26T00:40:06.675Z,7.70
2018-09-26T00:41:06.594Z,7.69
2018-09-26T00:42:06.509Z,7.76
2018-09-26T00:43:06.434Z,7.75
2018-09-26T00:44:06.346Z,7.70
2018-09-26T00:45:06.265Z,7.73
2018-09-26T00:46:06.180Z,7.70
2018-09-26T00:47:06.096Z,7.63
2018-09-26T00:48:06.015Z,7.63
2018-09-26T00:49:05.936Z,7.61
2018-09-26T00:50:05.849Z,7.60
2018-09-26T00:51:05.771Z,7.66
2018-09-26T00:52:05.685Z,7.51
2018-09-26T00:53:05.602Z,7.54
2018-09-26T00:54:05.521Z,7.53
2018-09-26T00:55:05.443Z,7.57
2018-09-26T00:56:05.358Z,7.54
2018-09-26T00:57:05.300Z,7.56
2018-09-26T00:58:05.192Z,7.54
2018-09-26T00:59:05.109Z,7.56
2018-09-26T01:00:05.027Z,7.57
2018-09-26T01:01:04.947Z,7.56
2018-09-26T01:02:04.861Z,7.50
2018-09-26T01:03:04.780Z,7.61
2018-09-26T01:04:04.698Z,7.63
2018-09-26T01:05:04.616Z,7.63
2018-09-26T01:06:04.539Z,7.66
2018-09-26T01:07:04.452Z,7.61
2018-09-26T01:08:04.369Z,7.58
2018-09-26T01:09:04.289Z,7.63
2018-09-26T01:10:04.204Z,7.57
2018-09-26T01:11:04.125Z,7.50
2018-09-26T01:12:04.042Z,7.47
2018-09-26T01:13:03.965Z,7.54
2018-09-26T01:14:03.877Z,7.45
2018-09-26T01:15:03.845Z,7.39
2018-09-26T01:16:03.713Z,7.45
2018-09-26T01:17:03.632Z,7.35
2018-09-26T01:18:03.546Z,7.40
2018-09-26T01:19:03.465Z,7.36
2018-09-26T01:20:03.386Z,7.38
2018-09-26T01:21:03.301Z,7.35
2018-09-26T01:22:03.219Z,7.29
2018-09-26T01:23:03.144Z,7.36
2018-09-26T01:24:03.054Z,7.36
2018-09-26T01:25:02.969Z,7.36
2018-09-26T01:26:02.887Z,7.42
2018-09-26T01:27:02.810Z,7.40
2018-09-26T01:28:02.722Z,7.29
2018-09-26T01:29:02.648Z,7.33
2018-09-26T01:30:02.563Z,7.31
2018-09-26T01:31:02.534Z,7.29
2018-09-26T01:32:02.394Z,7.35
2018-09-26T01:33:02.309Z,7.29
2018-09-26T01:34:02.229Z,7.29
2018-09-26T01:35:02.143Z,7.29
2018-09-26T01:36:02.062Z,7.18
2018-09-26T01:37:01.985Z,7.29
2018-09-26T01:38:01.896Z,7.23
2018-09-26T01:39:01.820Z,7.15
2018-09-26T01:40:01.733Z,7.24
2018-09-26T01:41:01.647Z,7.11
2018-09-26T01:42:01.568Z,7.13
2018-09-26T01:43:01.483Z,7.14
2018-09-26T01:44:01.406Z,7.17
2018-09-26T01:45:01.324Z,7.14
2018-09-26T01:46:01.236Z,7.06
2018-09-26T01:47:01.154Z,7.06
2018-09-26T01:48:01.070Z,7.13
2018-09-26T01:49:00.984Z,7.17
2018-09-26T01:50:00.906Z,7.23
2018-09-26T01:51:00.822Z,7.20
2018-09-26T01:52:00.739Z,7.23
2018-09-26T01:53:00.659Z,7.17
2018-09-26T01:54:00.574Z,7.14
2018-09-26T01:55:00.491Z,7.20
2018-09-26T01:56:00.423Z,7.21
2018-09-26T01:57:00.326Z,7.20
2018-09-26T01:58:00.244Z,7.13
2018-09-26T01:59:00.161Z,7.24
2018-09-26T02:00:00.079Z,7.23
2018-09-26T02:00:59.998Z,7.24
2018-09-26T02:01:59.914Z,7.29
2018-09-26T02:02:59.830Z,7.23
2018-09-26T02:03:59.748Z,7.21
2018-09-26T02:04:59.664Z,7.17
2018-09-26T02:05:59.583Z,7.14
2018-09-26T02:06:59.502Z,7.15
2018-09-26T02:07:59.415Z,7.20
2018-09-26T02:08:59.338Z,7.07
2018-09-26T02:09:59.251Z,7.17
2018-09-26T02:10:59.171Z,7.15
2018-09-26T02:11:59.086Z,7.18
2018-09-26T02:12:59.006Z,7.18
2018-09-26T02:13:58.919Z,7.17
2018-09-26T02:14:58.839Z,7.15
2018-09-26T02:15:58.763Z,7.10
2018-09-26T02:16:58.676Z,7.05
2018-09-26T02:17:58.594Z,7.03
2018-09-26T02:18:58.508Z,6.97
2018-09-26T02:19:58.426Z,6.88
2018-09-26T02:20:58.343Z,6.89
2018-09-26T02:21:58.261Z,6.84
2018-09-26T02:22:58.177Z,6.92
2018-09-26T02:23:58.120Z,6.85
2018-09-26T02:24:58.011Z,6.81
2018-09-26T02:25:57.934Z,6.78
2018-09-26T02:26:57.844Z,6.67
2018-09-26T02:27:57.765Z,6.72
2018-09-26T02:28:57.681Z,6.75
2018-09-26T02:29:57.599Z,6.85
2018-09-26T02:30:57.515Z,6.81
2018-09-26T02:31:57.440Z,6.81
2018-09-26T02:32:57.350Z,6.87
2018-09-26T02:33:57.268Z,6.84
2018-09-26T02:34:57.185Z,6.84
2018-09-26T02:35:57.102Z,6.85
2018-09-26T02:36:57.020Z,6.89
2018-09-26T02:37:56.937Z,6.85
2018-09-26T02:38:56.854Z,6.77
2018-09-26T02:39:56.775Z,6.87
2018-09-26T02:40:56.686Z,6.81
2018-09-26T02:41:56.604Z,6.81
2018-09-26T02:42:56.521Z,6.72
2018-09-26T02:43:56.438Z,6.74
2018-09-26T02:44:56.357Z,6.75
2018-09-26T02:45:56.270Z,6.75
2018-09-26T02:46:56.204Z,6.67
2018-09-26T02:47:56.110Z,6.67
2018-09-26T02:48:56.023Z,6.75
2018-09-26T02:49:55.943Z,6.67
2018-09-26T02:50:55.857Z,6.72
2018-09-26T02:51:55.774Z,6.59
2018-09-26T02:52:55.691Z,6.69
2018-09-26T02:53:55.608Z,6.66
2018-09-26T02:54:55.533Z,6.67
2018-09-26T02:55:55.600Z,6.66
2018-09-26T02:56:55.359Z,6.62
2018-09-26T02:57:55.282Z,6.64
2018-09-26T02:58:55.194Z,6.74
2018-09-26T02:59:55.109Z,6.59
2018-09-26T03:00:55.038Z,6.63
2018-09-26T03:01:54.942Z,6.62
2018-09-26T03:02:54.863Z,6.63
2018-09-26T03:03:54.777Z,6.67
2018-09-26T03:04:54.694Z,6.51
2018-09-26T03:05:54.612Z,6.56
2018-09-26T03:06:54.534Z,6.66
2018-09-26T03:07:54.444Z,6.64
2018-09-26T03:08:54.362Z,6.51
2018-09-26T03:09:54.280Z,6.51
2018-09-26T03:10:54.233Z,6.49
2018-09-26T03:11:54.114Z,6.42
2018-09-26T03:12:54.030Z,6.48
2018-09-26T03:13:53.951Z,6.45
2018-09-26T03:14:53.866Z,6.45
2018-09-26T03:15:53.786Z,6.48
2018-09-26T03:16:53.700Z,6.31
2018-09-26T03:17:53.617Z,6.31
2018-09-26T03:18:53.537Z,6.33
2018-09-26T03:19:53.449Z,6.51
2018-09-26T03:20:53.365Z,6.33
2018-09-26T03:21:53.284Z,6.52
2018-09-26T03:22:53.211Z,6.49
2018-09-26T03:23:53.118Z,6.51
2018-09-26T03:24:53.032Z,6.49
2018-09-26T03:25:52.951Z,6.51
2018-09-26T03:26:52.870Z,6.48
2018-09-26T03:27:52.788Z,6.46
2018-09-26T03:28:52.701Z,6.63
2018-09-26T03:29:52.621Z,6.56
2018-09-26T03:30:52.533Z,6.52
2018-09-26T03:31:52.454Z,6.52
2018-09-26T03:32:52.372Z,6.48
2018-09-26T03:33:52.410Z,6.44
2018-09-26T03:34:52.213Z,6.46
2018-09-26T03:35:52.120Z,6.51
2018-09-26T03:36:52.037Z,6.44
2018-09-26T03:37:51.963Z,6.35
2018-09-26T03:38:51.871Z,6.46
2018-09-26T03:39:51.785Z,6.49
2018-09-26T03:40:53.072Z,6.27
2018-09-26T03:41:59.340Z,6.28
2018-09-26T03:44:03.602Z,6.30
2018-09-26T03:45:03.459Z,6.27
2018-09-26T03:47:00.172Z,6.39
2018-09-26T03:48:07.666Z,6.42
2018-09-26T03:50:12.045Z,6.49
2018-09-26T03:51:11.874Z,6.44
2018-09-26T03:53:08.525Z,6.49
2018-09-26T03:54:08.434Z,6.45
2018-09-26T03:56:12.777Z,6.33
2018-09-26T03:57:20.286Z,6.28
2018-09-26T03:59:24.561Z,6.30
2018-09-26T04:00:24.487Z,6.35
2018-09-26T04:02:17.765Z,6.30
2018-09-26T04:03:17.647Z,6.42
2018-09-26T04:05:21.982Z,6.28
2018-09-26T04:06:21.847Z,6.17
2018-09-26T04:08:26.144Z,6.28
2018-09-26T04:09:26.045Z,6.35
2018-09-26T04:11:30.379Z,6.22
2018-09-26T04:12:22.608Z,6.31
2018-09-26T04:14:26.917Z,6.31
2018-09-26T04:15:26.855Z,6.27
2018-09-26T04:17:38.797Z,6.27
2018-09-26T04:18:38.669Z,6.26
2018-09-26T04:20:42.973Z,6.31
2018-09-26T04:21:35.245Z,6.27
2018-09-26T04:23:47.241Z,6.20
2018-09-26T04:24:47.097Z,6.22
2018-09-26T04:26:51.621Z,6.26
2018-09-26T04:27:43.690Z,6.26
2018-09-26T04:29:47.960Z,6.20
2018-09-26T04:30:47.860Z,6.20
2018-09-26T04:32:41.296Z,6.26
2018-09-26T04:33:41.058Z,6.08
2018-09-26T04:35:45.295Z,6.14
2018-09-26T04:36:45.207Z,6.12
2018-09-26T04:37:45.123Z,6.08
2018-09-26T04:38:45.211Z,6.11
2018-09-26T04:39:44.958Z,6.01
2018-09-26T04:40:44.872Z,6.07
2018-09-26T04:41:44.787Z,6.09
2018-09-26T04:42:44.705Z,6.09
2018-09-26T04:43:44.629Z,6.11
2018-09-26T04:44:44.539Z,6.01
2018-09-26T04:45:44.456Z,6.16
2018-09-26T04:46:44.394Z,6.14
2018-09-26T04:47:44.301Z,6.26
2018-09-26T04:48:44.203Z,6.27
2018-09-26T04:49:44.126Z,6.16
2018-09-26T04:50:44.097Z,6.17
2018-09-26T04:51:43.956Z,6.19
2018-09-26T04:52:43.873Z,6.19
2018-09-26T04:53:43.795Z,6.24
2018-09-26T04:54:43.706Z,6.26
2018-09-26T04:55:43.622Z,6.20
2018-09-26T04:56:43.535Z,6.22
2018-09-26T04:57:43.511Z,6.22
2018-09-26T04:58:43.367Z,6.27
2018-09-26T04:59:43.285Z,6.33
2018-09-26T05:00:43.202Z,6.33
2018-09-26T05:01:43.195Z,6.20
2018-09-26T05:02:43.037Z,6.22
2018-09-26T05:03:42.949Z,6.24
2018-09-26T05:04:42.867Z,6.17
2018-09-26T05:05:42.782Z,6.22
2018-09-26T05:06:42.700Z,6.30
2018-09-26T05:07:42.616Z,6.33
2018-09-26T05:08:42.532Z,6.33
2018-09-26T05:09:42.448Z,6.44
2018-09-26T05:10:42.365Z,6.22
2018-09-26T05:11:42.286Z,6.26
2018-09-26T05:12:42.205Z,6.20
2018-09-26T05:13:42.121Z,6.31
2018-09-26T05:14:42.075Z,6.31
2018-09-26T05:15:41.954Z,6.24
2018-09-26T05:16:41.865Z,6.14
2018-09-26T05:17:41.783Z,6.17
2018-09-26T05:18:41.696Z,6.24
2018-09-26T05:19:41.618Z,6.27
2018-09-26T05:20:41.532Z,6.17
2018-09-26T05:21:41.467Z,6.08
2018-09-26T05:22:41.367Z,6.16
2018-09-26T05:23:41.281Z,6.14
2018-09-26T05:24:41.200Z,6.26
2018-09-26T05:25:41.115Z,6.19
2018-09-26T05:26:41.029Z,6.28
2018-09-26T05:27:40.945Z,6.19
2018-09-26T05:28:40.861Z,6.27
2018-09-26T05:29:40.782Z,6.20
2018-09-26T05:30:40.697Z,6.19
2018-09-26T05:31:40.612Z,6.27
2018-09-26T05:32:40.533Z,6.20
2018-09-26T05:33:40.446Z,6.27
2018-09-26T05:34:40.362Z,6.14
2018-09-26T05:35:40.278Z,6.04
2018-09-26T05:36:40.192Z,6.05
2018-09-26T05:37:40.110Z,6.04
2018-09-26T05:38:40.028Z,5.99
2018-09-26T05:39:39.943Z,6.07
2018-09-26T05:40:39.859Z,6.12
2018-09-26T05:41:39.798Z,6.08
2018-09-26T05:42:39.702Z,6.08
2018-09-26T05:43:39.609Z,6.01
2018-09-26T05:44:39.524Z,6.07
2018-09-26T05:45:39.444Z,6.12
2018-09-26T05:46:39.378Z,6.02
2018-09-26T05:47:39.281Z,6.14
2018-09-26T05:48:39.208Z,6.01
2018-09-26T05:49:39.108Z,6.08
2018-09-26T05:50:39.021Z,6.04
2018-09-26T05:51:38.949Z,6.08
2018-09-26T05:52:38.859Z,6.04
2018-09-26T05:53:38.771Z,6.09
2018-09-26T05:54:38.694Z,6.16
2018-09-26T05:55:38.608Z,6.12
2018-09-26T05:56:38.523Z,6.05
2018-09-26T05:57:38.439Z,6.12
2018-09-26T05:58:38.362Z,6.08
2018-09-26T05:59:38.288Z,6.11
2018-09-26T06:00:38.189Z,6.09
2018-09-26T06:01:38.105Z,6.07
2018-09-26T06:02:38.024Z,6.09
2018-09-26T06:03:37.940Z,6.11
2018-09-26T06:04:37.866Z,6.16
2018-09-26T06:05:37.770Z,6.08
2018-09-26T06:06:37.690Z,6.12
2018-09-26T06:07:37.609Z,6.17
2018-09-26T06:08:37.528Z,6.12
2018-09-26T06:09:37.437Z,6.17
2018-09-26T06:10:37.354Z,6.19
2018-09-26T06:11:37.279Z,6.09
2018-09-26T06:12:37.199Z,6.12
2018-09-26T06:13:37.104Z,6.14
2018-09-26T06:14:37.023Z,6.04
2018-09-26T06:15:36.937Z,6.12
2018-09-26T06:16:36.854Z,6.11
2018-09-26T06:17:36.770Z,6.14
2018-09-26T06:18:36.709Z,6.11
2018-09-26T06:19:36.615Z,6.08
2018-09-26T06:20:36.520Z,6.22
2018-09-26T06:21:36.440Z,6.04
2018-09-26T06:22:36.361Z,6.12
2018-09-26T06:23:36.271Z,6.17
2018-09-26T06:24:36.194Z,6.24
2018-09-26T06:25:36.100Z,6.20
2018-09-26T06:26:36.016Z,6.20
2018-09-26T06:27:35.934Z,6.33
2018-09-26T06:28:35.859Z,6.41
2018-09-26T06:29:35.771Z,6.49
2018-09-26T06:30:35.704Z,6.62
2018-09-26T06:31:35.601Z,6.57
2018-09-26T06:32:35.521Z,6.62
2018-09-26T06:33:35.441Z,6.60
2018-09-26T06:34:35.350Z,6.62
2018-09-26T06:35:35.271Z,6.66
2018-09-26T06:36:35.187Z,6.67
2018-09-26T06:37:35.102Z,6.66
2018-09-26T06:38:35.020Z,6.72
2018-09-26T06:39:34.934Z,6.74
2018-09-26T06:40:34.903Z,6.69
2018-09-26T06:41:34.771Z,6.75
2018-09-26T06:42:34.687Z,6.67
2018-09-26T06:43:34.599Z,6.82
2018-09-26T06:44:34.518Z,6.87
2018-09-26T06:45:34.450Z,6.84
2018-09-26T06:46:34.354Z,6.93
2018-09-26T06:47:34.394Z,7.00
2018-09-26T06:48:34.184Z,6.99
2018-09-26T06:49:34.101Z,6.95
2018-09-26T06:50:34.020Z,6.96
2018-09-26T06:51:33.939Z,6.99
2018-09-26T06:52:33.857Z,7.03
2018-09-26T06:53:33.772Z,7.14
2018-09-26T06:54:33.693Z,7.15
2018-09-26T06:55:33.610Z,7.20
2018-09-26T06:56:33.525Z,7.33
2018-09-26T06:57:33.454Z,7.29
2018-09-26T06:58:33.358Z,7.35
2018-09-26T06:59:33.279Z,7.47
2018-09-26T07:00:33.193Z,7.48
2018-09-26T07:01:33.110Z,7.53
2018-09-26T07:02:33.029Z,7.56
2018-09-26T07:03:32.953Z,7.70
2018-09-26T07:04:32.865Z,7.75
2018-09-26T07:05:32.789Z,7.72
2018-09-26T07:06:32.700Z,7.70
2018-09-26T07:07:32.621Z,7.75
2018-09-26T07:08:32.542Z,7.82
2018-09-26T07:09:32.453Z,7.76
2018-09-26T07:10:32.371Z,7.80
2018-09-26T07:11:32.289Z,7.87
2018-09-26T07:12:32.208Z,7.85
2018-09-26T07:13:32.128Z,7.97
2018-09-26T07:14:32.041Z,7.91
2018-09-26T07:15:31.960Z,7.94
2018-09-26T07:16:31.878Z,7.97
2018-09-26T07:17:31.795Z,7.97
2018-09-26T07:18:31.715Z,8.03
2018-09-26T07:19:31.634Z,8.03
2018-09-26T07:20:31.552Z,8.05
2018-09-26T07:21:31.472Z,8.08
2018-09-26T07:22:31.387Z,8.09
2018-09-26T07:23:31.306Z,8.08
2018-09-26T07:24:31.245Z,8.20
2018-09-26T07:25:31.143Z,8.13
2018-09-26T07:26:31.064Z,8.20
2018-09-26T07:27:30.980Z,8.24
2018-09-26T07:28:30.902Z,8.24
2018-09-26T07:29:30.815Z,8.24
2018-09-26T07:30:30.764Z,8.30
2018-09-26T07:31:30.684Z,8.30
2018-09-26T07:32:30.572Z,8.38
2018-09-26T07:33:30.494Z,8.34
2018-09-26T07:34:30.410Z,8.45
2018-09-26T07:35:30.328Z,8.44
2018-09-26T07:36:30.245Z,8.48
2018-09-26T07:37:30.166Z,8.58
2018-09-26T07:38:30.129Z,8.63
2018-09-26T07:39:30.004Z,8.61
2018-09-26T07:40:29.928Z,8.64
2018-09-26T07:41:29.841Z,8.71
2018-09-26T07:42:29.760Z,8.85
2018-09-26T07:43:29.678Z,8.76
2018-09-26T07:44:29.635Z,8.79
2018-09-26T07:45:29.564Z,8.82
2018-09-26T07:46:29.434Z,8.87
2018-09-26T07:47:29.355Z,8.88
2018-09-26T07:48:29.278Z,8.94
2018-09-26T07:49:29.191Z,8.92
2018-09-26T07:50:29.116Z,8.95
2018-09-26T07:51:29.030Z,9.08
2018-09-26T07:52:28.952Z,9.02
2018-09-26T07:53:28.870Z,9.10
2018-09-26T07:54:28.791Z,9.06
2018-09-26T07:55:28.708Z,8.99
2018-09-26T07:56:28.629Z,9.03
2018-09-26T07:57:28.548Z,9.04
2018-09-26T07:58:28.466Z,9.03
2018-09-26T07:59:28.392Z,9.06
2018-09-26T08:00:28.305Z,9.00
2018-09-26T08:01:28.226Z,9.10
2018-09-26T08:02:28.143Z,9.06
2018-09-26T08:03:28.063Z,9.06
2018-09-26T08:04:28.003Z,9.02
2018-09-26T08:05:27.956Z,9.04
2018-09-26T08:06:27.873Z,9.11
2018-09-26T08:07:27.809Z,9.10
2018-09-26T08:08:27.710Z,9.06
2018-09-26T08:09:27.628Z,9.03
2018-09-26T08:10:27.497Z,9.04
2018-09-26T08:11:27.513Z,9.04
2018-09-26T08:12:27.338Z,9.02
2018-09-26T08:13:27.256Z,9.08
2018-09-26T08:14:27.175Z,9.13
2018-09-26T08:15:27.100Z,9.06
2018-09-26T08:16:27.025Z,9.00
2018-09-26T08:17:26.933Z,9.10
2018-09-26T08:18:26.857Z,8.97
2018-09-26T08:19:26.773Z,8.99
2018-09-26T08:20:26.690Z,9.10
2018-09-26T08:21:28.409Z,9.16
2018-09-26T08:22:26.598Z,9.22
2018-09-26T08:23:26.456Z,9.13
2018-09-26T08:24:26.382Z,9.13
2018-09-26T08:25:26.290Z,9.21
2018-09-26T08:26:26.264Z,9.25
2018-09-26T08:27:26.196Z,9.26
2018-09-26T08:28:26.115Z,9.36
2018-09-26T08:29:26.032Z,9.28
2018-09-26T08:30:25.913Z,9.37
2018-09-26T08:31:25.802Z,9.31
2018-09-26T08:32:25.722Z,9.37
2018-09-26T08:33:25.670Z,9.46
2018-09-26T08:34:25.560Z,9.43
2018-09-26T08:35:25.478Z,9.48
2018-09-26T08:36:25.401Z,9.46
2018-09-26T08:37:25.320Z,9.48
2018-09-26T08:38:25.235Z,9.47
2018-09-26T08:39:25.158Z,9.50
2018-09-26T08:40:25.098Z,9.58
2018-09-26T08:41:25.004Z,9.64
2018-09-26T08:42:24.915Z,9.64
2018-09-26T08:43:24.835Z,9.65
2018-09-26T08:44:24.758Z,9.69
2018-09-26T08:45:24.691Z,9.72
2018-09-26T08:46:24.602Z,9.65
2018-09-26T08:47:24.516Z,9.65
2018-09-26T08:48:24.434Z,9.66
2018-09-26T08:49:24.351Z,9.65
2018-09-26T08:50:24.278Z,9.68
2018-09-26T08:51:24.191Z,9.79
2018-09-26T08:52:24.126Z,9.73
2018-09-26T08:53:24.032Z,9.74
2018-09-26T08:54:23.946Z,9.84
2018-09-26T08:55:23.866Z,9.77
2018-09-26T08:56:23.786Z,9.84
2018-09-26T08:57:23.711Z,9.91
2018-09-26T08:58:23.627Z,9.89
2018-09-26T08:59:23.553Z,9.97
2018-09-26T09:00:23.466Z,9.99
2018-09-26T09:01:23.385Z,10.05
2018-09-26T09:02:23.303Z,10.07
2018-09-26T09:03:23.223Z,10.05
2018-09-26T09:04:23.141Z,10.01
2018-09-26T09:05:23.062Z,10.09
2018-09-26T09:06:23.065Z,10.07
2018-09-26T09:07:22.901Z,10.17
2018-09-26T09:08:22.820Z,10.19
2018-09-26T09:09:22.747Z,10.22
2018-09-26T09:10:22.663Z,10.31
2018-09-26T09:11:22.580Z,10.30
2018-09-26T09:12:22.500Z,10.48
2018-09-26T09:13:22.423Z,10.40
2018-09-26T09:14:22.408Z,10.44
2018-09-26T09:15:22.257Z,10.49
2018-09-26T09:16:22.192Z,10.49
2018-09-26T09:17:22.101Z,10.51
2018-09-26T09:18:22.016Z,10.51
2018-09-26T09:19:21.938Z,10.56
2018-09-26T09:20:21.909Z,10.60
2018-09-26T09:21:21.777Z,10.63
2018-09-26T09:22:21.699Z,10.63
2018-09-26T09:23:21.617Z,10.72
2018-09-26T09:24:21.538Z,10.67
2018-09-26T09:25:21.458Z,10.72
2018-09-26T09:26:21.439Z,10.81
2018-09-26T09:27:21.413Z,10.82
2018-09-26T09:28:21.218Z,10.84
2018-09-26T09:29:21.136Z,10.86
2018-09-26T09:30:21.058Z,10.87
2018-09-26T09:31:20.978Z,11.05
2018-09-26T09:32:20.954Z,10.87
2018-09-26T09:33:35.419Z,10.94
2018-09-26T09:34:20.738Z,11.04
2018-09-26T09:35:20.659Z,11.08
2018-09-26T09:36:20.614Z,11.08
2018-09-26T09:37:20.501Z,11.14
2018-09-26T09:38:20.493Z,11.23
2018-09-26T09:39:20.346Z,11.27
2018-09-26T09:40:20.264Z,11.32
2018-09-26T09:41:20.185Z,11.41
2018-09-26T09:42:27.759Z,11.48
2018-09-26T09:44:23.976Z,11.57
2018-09-26T09:45:23.841Z,11.57
2018-09-26T09:46:23.755Z,11.63
2018-09-26T09:47:23.672Z,11.70
2018-09-26T09:48:23.595Z,11.73
2018-09-26T09:49:23.516Z,11.81
2018-09-26T09:50:23.445Z,11.84
2018-09-26T09:51:23.359Z,11.94
2018-09-26T09:52:23.286Z,11.84
2018-09-26T09:53:23.215Z,11.97
2018-09-26T09:54:23.124Z,12.03
2018-09-26T09:55:23.045Z,12.04
2018-09-26T09:56:23.015Z,12.12
2018-09-26T09:57:22.887Z,12.15
2018-09-26T09:58:22.817Z,12.12
2018-09-26T09:59:22.730Z,12.21
2018-09-26T10:00:22.659Z,12.27
2018-09-26T10:01:22.572Z,12.25
2018-09-26T10:02:22.615Z,12.27
2018-09-26T10:03:22.416Z,12.40
2018-09-26T10:04:22.338Z,12.40
2018-09-26T10:05:22.259Z,12.40
2018-09-26T10:06:22.195Z,12.43
2018-09-26T10:07:22.104Z,12.47
2018-09-26T10:08:22.103Z,12.50
2018-09-26T10:09:21.950Z,12.47
2018-09-26T10:10:21.887Z,12.54
2018-09-26T10:11:21.792Z,12.53
2018-09-26T10:12:21.716Z,12.49
2018-09-26T10:13:21.638Z,12.57
2018-09-26T10:14:21.640Z,12.67
2018-09-26T10:15:21.482Z,12.65
2018-09-26T10:16:21.428Z,12.64
2018-09-26T10:17:21.365Z,12.64
2018-09-26T10:18:21.251Z,12.61
2018-09-26T10:19:21.172Z,12.57
2018-09-26T10:20:21.117Z,12.61
2018-09-26T10:21:21.017Z,12.64
2018-09-26T10:22:20.988Z,12.70
2018-09-26T10:23:20.870Z,12.83
2018-09-26T10:24:20.784Z,12.83
2018-09-26T10:25:20.707Z,12.86
2018-09-26T10:26:20.668Z,12.90
2018-09-26T10:27:20.560Z,12.97
2018-09-26T10:28:20.482Z,12.98
2018-09-26T10:29:20.402Z,13.08
2018-09-26T10:30:20.322Z,13.12
2018-09-26T10:31:20.249Z,13.30
2018-09-26T10:32:20.244Z,13.25
2018-09-26T10:33:20.100Z,13.19
2018-09-26T10:34:20.032Z,13.37
2018-09-26T10:35:19.935Z,13.50
2018-09-26T10:36:19.858Z,13.60
2018-09-26T10:37:19.784Z,13.72
2018-09-26T10:38:19.764Z,13.78
2018-09-26T10:39:19.632Z,13.89
2018-09-26T10:40:19.551Z,14.08
2018-09-26T10:41:19.475Z,14.28
2018-09-26T10:42:19.398Z,14.51
2018-09-26T10:43:19.326Z,14.77
2018-09-26T10:44:19.312Z,15.06
2018-09-26T10:45:19.166Z,15.25
2018-09-26T10:46:19.093Z,15.43
2018-09-26T10:47:19.015Z,15.72
2018-09-26T10:48:18.958Z,15.92
2018-09-26T10:49:18.878Z,16.21
2018-09-26T10:50:18.934Z,16.56
2018-09-26T10:51:18.716Z,16.61
2018-09-26T10:52:18.692Z,16.83
2018-09-26T10:53:18.580Z,17.14
2018-09-26T10:54:18.496Z,17.30
2018-09-26T10:55:18.423Z,17.64
2018-09-26T10:56:18.478Z,17.74
2018-09-26T10:57:18.283Z,17.79
2018-09-26T10:58:18.211Z,17.92
2018-09-26T10:59:18.132Z,18.04
2018-09-26T11:00:18.064Z,18.26
2018-09-26T11:01:17.993Z,18.52
2018-09-26T11:02:17.993Z,18.81
2018-09-26T11:03:17.850Z,19.02
2018-09-26T11:04:17.876Z,19.08
2018-09-26T11:05:17.715Z,19.33
2018-09-26T11:06:17.652Z,19.66
2018-09-26T11:07:17.583Z,19.76
2018-09-26T11:08:17.572Z,19.91
2018-09-26T11:09:17.447Z,19.99
2018-09-26T11:10:17.402Z,19.96
2018-09-26T11:11:17.310Z,20.07
2018-09-26T11:12:17.245Z,20.14
2018-09-26T11:13:17.186Z,20.29
2018-09-26T11:14:17.141Z,20.37
2018-09-26T11:15:17.170Z,20.24
2018-09-26T11:16:17.046Z,20.11
2018-09-26T11:17:16.917Z,20.14
2018-09-26T11:18:16.851Z,20.25
2018-09-26T11:19:16.786Z,20.19
2018-09-26T11:20:16.747Z,20.32
2018-09-26T11:21:16.674Z,20.19
2018-09-26T11:22:16.665Z,20.19
2018-09-26T11:23:16.530Z,20.26
2018-09-26T11:24:16.458Z,20.36
2018-09-26T11:25:16.396Z,20.43
2018-09-26T11:26:16.392Z,20.52
2018-09-26T11:27:16.262Z,20.50
2018-09-26T11:28:16.233Z,20.56
2018-09-26T11:29:16.152Z,20.52
2018-09-26T11:30:16.071Z,20.81
2018-09-26T11:31:16.006Z,21.11
2018-09-26T11:32:15.979Z,21.48
2018-09-26T11:33:15.938Z,21.70
2018-09-26T11:34:15.836Z,21.98
2018-09-26T11:35:15.743Z,22.35
2018-09-26T11:36:15.690Z,22.59
2018-09-26T11:37:15.615Z,22.90
2018-09-26T11:38:15.569Z,23.15
2018-09-26T11:39:15.488Z,23.23
2018-09-26T11:40:15.454Z,23.36
2018-09-26T11:41:15.360Z,23.55
2018-09-26T11:42:15.299Z,23.54
2018-09-26T11:43:15.242Z,23.76
2018-09-26T11:44:15.214Z,24.20
2018-09-26T11:45:15.113Z,24.68
2018-09-26T11:46:15.119Z,24.92
2018-09-26T11:47:14.988Z,25.25
2018-09-26T11:48:14.929Z,25.43
2018-09-26T11:49:14.870Z,25.72
2018-09-26T11:50:14.853Z,25.80
2018-09-26T11:51:14.799Z,26.10
2018-09-26T11:52:14.780Z,26.36
2018-09-26T11:53:14.636Z,26.45
2018-09-26T11:54:14.595Z,26.56
2018-09-26T11:55:14.514Z,26.85
2018-09-26T11:56:15.447Z,26.99
2018-09-26T11:57:14.398Z,27.02
2018-09-26T11:58:14.409Z,27.08
2018-09-26T11:59:14.277Z,26.97
2018-09-26T12:00:14.221Z,26.99
2018-09-26T12:01:14.162Z,27.08
2018-09-26T12:02:14.156Z,27.11
2018-09-26T12:03:14.049Z,27.14
2018-09-26T12:04:13.998Z,27.12
2018-09-26T12:06:13.981Z,27.10
2018-09-26T12:07:13.926Z,26.95
2018-09-26T12:08:13.816Z,26.60
2018-09-26T12:09:13.748Z,26.48
2018-09-26T12:10:13.719Z,26.73
2018-09-26T12:11:13.640Z,26.85
2018-09-26T12:12:34.577Z,27.35
2018-09-26T12:13:13.566Z,27.39
2018-09-26T12:14:13.467Z,27.22
2018-09-26T12:15:13.403Z,26.99
2018-09-26T12:16:13.388Z,27.39
2018-09-26T12:17:13.291Z,27.70
2018-09-26T12:18:34.226Z,27.96
2018-09-26T12:19:13.200Z,28.23
2018-09-26T12:20:13.123Z,28.49
2018-09-26T12:21:14.029Z,28.75
2018-09-26T12:22:13.045Z,28.98
2018-09-26T12:23:12.950Z,29.16
2018-09-26T12:25:13.122Z,29.41
2018-09-26T12:26:12.977Z,29.45
2018-09-26T12:27:12.918Z,29.39
2018-09-26T12:28:14.239Z,29.51
2018-09-26T12:29:12.857Z,29.24
2018-09-26T12:31:55.149Z,29.14
2018-09-26T12:32:55.045Z,29.45
2018-09-26T12:34:58.974Z,30.00
2018-09-26T12:35:58.856Z,30.39
2018-09-26T12:38:02.771Z,30.68
2018-09-26T12:39:02.661Z,30.83
2018-09-26T12:41:06.537Z,30.88
2018-09-26T12:42:06.529Z,30.90
2018-09-26T12:44:10.380Z,31.09
2018-09-26T12:45:10.276Z,31.07
2018-09-26T12:46:10.252Z,31.15
2018-09-26T12:47:10.204Z,31.10
2018-09-26T12:48:10.182Z,30.99
2018-09-26T12:49:10.077Z,30.68
2018-09-26T12:50:10.019Z,30.09
2018-09-26T12:51:09.953Z,29.57
2018-09-26T12:52:09.905Z,29.13
2018-09-26T12:53:09.842Z,28.79
2018-09-26T12:54:09.785Z,28.26
2018-09-26T12:55:09.798Z,27.60
2018-09-26T12:56:09.695Z,27.22
2018-09-26T12:57:09.687Z,27.00
2018-09-26T12:58:09.589Z,26.92
2018-09-26T12:59:09.514Z,26.90
2018-09-26T13:00:09.539Z,26.83
2018-09-26T13:01:09.420Z,26.83
2018-09-26T13:02:09.363Z,26.99
2018-09-26T13:03:09.291Z,27.11
2018-09-26T13:04:09.289Z,27.02
2018-09-26T13:05:09.183Z,26.97
2018-09-26T13:06:09.151Z,26.84
2018-09-26T13:07:09.077Z,26.58
2018-09-26T13:08:09.060Z,26.40
2018-09-26T13:09:08.961Z,26.26
2018-09-26T13:10:08.966Z,26.15
2018-09-26T13:11:08.846Z,25.96
2018-09-26T13:12:08.850Z,25.81
2018-09-26T13:13:08.737Z,25.84
2018-09-26T13:14:08.725Z,26.03
2018-09-26T13:15:08.620Z,26.22
2018-09-26T13:16:08.596Z,26.55
2018-09-26T13:17:08.501Z,26.56
2018-09-26T13:18:08.460Z,26.60
2018-09-26T13:19:08.477Z,26.84
2018-09-26T13:20:08.360Z,26.97
2018-09-26T13:21:08.268Z,27.33
2018-09-26T13:22:08.222Z,27.47
2018-09-26T13:23:08.150Z,27.70
2018-09-26T13:33:26.001Z,29.08
2018-09-26T13:34:25.925Z,28.26
2018-09-26T13:35:25.805Z,27.51
2018-09-26T13:36:25.814Z,26.97
2018-09-26T13:37:25.667Z,26.51
2018-09-26T13:38:25.709Z,26.15
2018-09-26T13:39:25.551Z,25.88
2018-09-26T13:40:25.566Z,25.60
2018-09-26T13:41:25.421Z,25.44
2018-09-26T13:42:25.499Z,25.28
2018-09-26T13:43:25.297Z,25.31
2018-09-26T13:44:25.285Z,25.29
2018-09-26T13:45:25.182Z,25.36